| Date | Time | Temp. (oF) | Dew Point (oF) | Rel. Hum. (%) | Press. (in.) | Wind Dir. | Wind Speed (mph) | Hourly Rainfall (in.) |
|
|---|---|---|---|---|---|---|---|---|---|
| 1 | 06/07 | 00:00 | 64 | 51 | 65 | 29.73 | N | 3 | 0.00 |
| 2 | 06/06 | 23:00 | 66 | 51 | 60 | 29.71 | NW | 5 | 0.00 |
| 3 | 06/06 | 22:00 | 68 | 50 | 54 | 29.68 | NNW | 7 | 0.00 |
| 4 | 06/06 | 21:00 | 71 | 53 | 54 | 29.64 | N | 4 | 0.00 |
| 5 | 06/06 | 20:00 | 74 | 54 | 50 | 29.60 | NW | 16 | 0.00 |
| 6 | 06/06 | 19:00 | 78 | 57 | 50 | 29.54 | N | 10 | 0.00 |
| 7 | 06/06 | 18:00 | 80 | 60 | 52 | 29.51 | WNW | 12 | 0.00 |
| 8 | 06/06 | 17:00 | 81 | 66 | 61 | 29.48 | N | 3 | 0.00 |
| 9 | 06/06 | 16:00 | 80 | 71 | 75 | 29.48 | N | 3 | 0.00 |
| 10 | 06/06 | 15:00 | 80 | 70 | 73 | 29.47 | WSW | 15 | 0.00 |
| 11 | 06/06 | 14:00 | 83 | 69 | 65 | 29.44 | WSW | 7 | 0.00 |
| 12 | 06/06 | 13:00 | 84 | 69 | 63 | 29.45 | SSW | 17 | 0.00 |
| 13 | 06/06 | 12:00 | 84 | 69 | 63 | 29.46 | SW | 10 | 0.00 |
| 14 | 06/06 | 11:00 | 84 | 71 | 66 | 29.47 | SSW | 6 | 0.00 |
| 15 | 06/06 | 10:00 | 83 | 71 | 69 | 29.50 | W | 7 | 0.00 |
| 16 | 06/06 | 09:00 | 77 | 70 | 80 | 29.53 | SW | 6 | 0.00 |
| 17 | 06/06 | 08:00 | 74 | 69 | 85 | 29.57 | SW | 6 | 0.00 |
| 18 | 06/06 | 07:00 | 73 | 69 | 88 | 29.59 | SSW | 4 | 0.00 |
| 19 | 06/06 | 06:00 | 71 | 68 | 91 | 29.61 | SW | 1 | 0.00 |
| 20 | 06/06 | 05:00 | 70 | 68 | 95 | 29.61 | S | 0 | 0.00 |
| 21 | 06/06 | 04:00 | 70 | 67 | 93 | 29.63 | SSW | 0 | 0.00 |
| 22 | 06/06 | 03:00 | 71 | 68 | 91 | 29.63 | SW | 2 | 0.00 |
| 23 | 06/06 | 02:00 | 72 | 68 | 90 | 29.64 | WSW | 2 | 0.00 |
| 24 | 06/06 | 01:00 | 73 | 70 | 91 | 29.68 | SW | 3 | 0.00 |